sensor_id;sensor_type;location;lat;lon;timestamp;P1;durP1;ratioP1;P2;durP2;ratioP2
21148;SDS011;10732;51.472;6.466;2022-07-23T00:00:13;7.50;;;5.88;;
21148;SDS011;10732;51.472;6.466;2022-07-23T00:02:38;8.23;;;5.53;;
21148;SDS011;10732;51.472;6.466;2022-07-23T00:05:04;7.60;;;5.70;;
21148;SDS011;10732;51.472;6.466;2022-07-23T00:07:30;9.23;;;6.00;;
21148;SDS011;10732;51.472;6.466;2022-07-23T00:09:55;8.50;;;5.57;;
21148;SDS011;10732;51.472;6.466;2022-07-23T00:12:21;7.30;;;5.38;;
21148;SDS011;10732;51.472;6.466;2022-07-23T00:14:47;7.22;;;5.80;;
21148;SDS011;10732;51.472;6.466;2022-07-23T00:17:12;7.90;;;6.68;;
21148;SDS011;10732;51.472;6.466;2022-07-23T00:19:38;8.73;;;6.28;;
21148;SDS011;10732;51.472;6.466;2022-07-23T00:22:03;8.52;;;6.13;;
21148;SDS011;10732;51.472;6.466;2022-07-23T00:24:29;7.53;;;5.78;;
21148;SDS011;10732;51.472;6.466;2022-07-23T00:26:55;8.70;;;6.10;;
21148;SDS011;10732;51.472;6.466;2022-07-23T00:29:20;7.47;;;6.07;;
21148;SDS011;10732;51.472;6.466;2022-07-23T00:31:46;7.05;;;5.70;;
21148;SDS011;10732;51.472;6.466;2022-07-23T00:34:11;7.13;;;5.38;;
21148;SDS011;10732;51.472;6.466;2022-07-23T00:36:37;13.00;;;5.70;;
21148;SDS011;10732;51.472;6.466;2022-07-23T00:39:03;9.50;;;5.47;;
21148;SDS011;10732;51.472;6.466;2022-07-23T00:41:28;6.82;;;5.63;;
21148;SDS011;10732;51.472;6.466;2022-07-23T00:43:54;9.80;;;5.97;;
21148;SDS011;10732;51.472;6.466;2022-07-23T00:46:20;7.20;;;5.75;;
21148;SDS011;10732;51.472;6.466;2022-07-23T00:48:46;10.75;;;6.05;;
21148;SDS011;10732;51.472;6.466;2022-07-23T00:51:12;6.32;;;5.35;;
21148;SDS011;10732;51.472;6.466;2022-07-23T00:53:37;6.28;;;5.50;;
21148;SDS011;10732;51.472;6.466;2022-07-23T00:56:03;7.80;;;5.88;;
21148;SDS011;10732;51.472;6.466;2022-07-23T00:58:29;12.10;;;6.57;;
21148;SDS011;10732;51.472;6.466;2022-07-23T01:00:55;6.65;;;5.95;;
21148;SDS011;10732;51.472;6.466;2022-07-23T01:03:21;10.95;;;6.18;;
21148;SDS011;10732;51.472;6.466;2022-07-23T01:05:47;6.75;;;6.05;;
21148;SDS011;10732;51.472;6.466;2022-07-23T01:08:14;6.93;;;6.10;;
21148;SDS011;10732;51.472;6.466;2022-07-23T01:10:40;7.05;;;6.30;;
21148;SDS011;10732;51.472;6.466;2022-07-23T01:13:07;9.43;;;6.32;;
21148;SDS011;10732;51.472;6.466;2022-07-23T01:15:34;8.43;;;6.40;;
21148;SDS011;10732;51.472;6.466;2022-07-23T01:18:01;9.50;;;6.20;;
21148;SDS011;10732;51.472;6.466;2022-07-23T01:20:27;9.38;;;5.93;;
21148;SDS011;10732;51.472;6.466;2022-07-23T01:22:53;8.80;;;6.70;;
21148;SDS011;10732;51.472;6.466;2022-07-23T01:25:20;8.88;;;6.38;;
21148;SDS011;10732;51.472;6.466;2022-07-23T01:27:46;9.85;;;6.47;;
21148;SDS011;10732;51.472;6.466;2022-07-23T01:30:12;8.55;;;6.63;;
21148;SDS011;10732;51.472;6.466;2022-07-23T01:32:38;8.70;;;6.18;;
21148;SDS011;10732;51.472;6.466;2022-07-23T01:35:04;9.00;;;6.70;;
21148;SDS011;10732;51.472;6.466;2022-07-23T01:37:30;8.32;;;6.50;;
21148;SDS011;10732;51.472;6.466;2022-07-23T01:39:56;9.02;;;7.15;;
21148;SDS011;10732;51.472;6.466;2022-07-23T01:42:22;8.52;;;7.30;;
21148;SDS011;10732;51.472;6.466;2022-07-23T01:44:48;9.90;;;7.10;;
21148;SDS011;10732;51.472;6.466;2022-07-23T01:47:14;8.88;;;7.45;;
21148;SDS011;10732;51.472;6.466;2022-07-23T01:49:39;10.70;;;6.85;;
21148;SDS011;10732;51.472;6.466;2022-07-23T01:52:05;11.07;;;7.45;;
21148;SDS011;10732;51.472;6.466;2022-07-23T01:54:34;13.18;;;7.75;;
21148;SDS011;10732;51.472;6.466;2022-07-23T01:57:00;10.15;;;7.82;;
21148;SDS011;10732;51.472;6.466;2022-07-23T01:59:26;13.55;;;7.57;;
21148;SDS011;10732;51.472;6.466;2022-07-23T02:01:53;11.85;;;7.63;;
21148;SDS011;10732;51.472;6.466;2022-07-23T02:04:19;11.43;;;7.65;;
21148;SDS011;10732;51.472;6.466;2022-07-23T02:06:45;9.73;;;7.30;;
21148;SDS011;10732;51.472;6.466;2022-07-23T02:09:11;13.30;;;7.82;;
21148;SDS011;10732;51.472;6.466;2022-07-23T02:11:37;12.07;;;7.95;;
21148;SDS011;10732;51.472;6.466;2022-07-23T02:14:03;10.05;;;7.30;;
21148;SDS011;10732;51.472;6.466;2022-07-23T02:16:28;11.00;;;7.28;;
21148;SDS011;10732;51.472;6.466;2022-07-23T02:18:54;9.55;;;7.50;;
21148;SDS011;10732;51.472;6.466;2022-07-23T02:21:20;11.50;;;7.40;;
21148;SDS011;10732;51.472;6.466;2022-07-23T02:23:46;12.07;;;8.43;;
21148;SDS011;10732;51.472;6.466;2022-07-23T02:26:11;11.43;;;8.20;;
21148;SDS011;10732;51.472;6.466;2022-07-23T02:28:37;11.27;;;7.50;;
21148;SDS011;10732;51.472;6.466;2022-07-23T02:31:03;11.57;;;8.35;;
21148;SDS011;10732;51.472;6.466;2022-07-23T02:33:29;10.63;;;7.72;;
21148;SDS011;10732;51.472;6.466;2022-07-23T02:35:54;14.05;;;8.38;;
21148;SDS011;10732;51.472;6.466;2022-07-23T02:38:20;12.85;;;7.80;;
21148;SDS011;10732;51.472;6.466;2022-07-23T02:40:45;10.90;;;7.82;;
21148;SDS011;10732;51.472;6.466;2022-07-23T02:43:11;12.07;;;8.00;;
21148;SDS011;10732;51.472;6.466;2022-07-23T02:45:37;8.85;;;7.90;;
21148;SDS011;10732;51.472;6.466;2022-07-23T02:48:02;10.63;;;8.50;;
21148;SDS011;10732;51.472;6.466;2022-07-23T02:50:28;8.90;;;8.00;;
21148;SDS011;10732;51.472;6.466;2022-07-23T02:52:54;11.60;;;8.55;;
21148;SDS011;10732;51.472;6.466;2022-07-23T02:55:19;11.73;;;8.35;;
21148;SDS011;10732;51.472;6.466;2022-07-23T02:57:45;10.80;;;7.90;;
21148;SDS011;10732;51.472;6.466;2022-07-23T03:00:10;14.60;;;9.18;;
21148;SDS011;10732;51.472;6.466;2022-07-23T03:02:36;11.50;;;8.88;;
21148;SDS011;10732;51.472;6.466;2022-07-23T03:05:02;12.43;;;8.60;;
21148;SDS011;10732;51.472;6.466;2022-07-23T03:07:28;12.63;;;8.32;;
21148;SDS011;10732;51.472;6.466;2022-07-23T03:09:54;10.50;;;8.20;;
21148;SDS011;10732;51.472;6.466;2022-07-23T03:12:19;14.82;;;8.38;;
21148;SDS011;10732;51.472;6.466;2022-07-23T03:14:45;10.77;;;9.27;;
21148;SDS011;10732;51.472;6.466;2022-07-23T03:17:10;12.70;;;9.02;;
21148;SDS011;10732;51.472;6.466;2022-07-23T03:19:36;11.75;;;9.35;;
21148;SDS011;10732;51.472;6.466;2022-07-23T03:22:02;12.27;;;8.88;;
21148;SDS011;10732;51.472;6.466;2022-07-23T03:24:28;10.50;;;9.18;;
21148;SDS011;10732;51.472;6.466;2022-07-23T03:27:13;11.63;;;8.65;;
21148;SDS011;10732;51.472;6.466;2022-07-23T03:29:39;11.98;;;9.20;;
21148;SDS011;10732;51.472;6.466;2022-07-23T03:32:05;11.05;;;8.75;;
21148;SDS011;10732;51.472;6.466;2022-07-23T03:34:31;13.07;;;9.57;;
21148;SDS011;10732;51.472;6.466;2022-07-23T03:36:56;12.73;;;9.70;;
21148;SDS011;10732;51.472;6.466;2022-07-23T03:39:22;12.02;;;9.70;;
21148;SDS011;10732;51.472;6.466;2022-07-23T03:41:48;14.15;;;10.40;;
21148;SDS011;10732;51.472;6.466;2022-07-23T03:44:13;12.60;;;9.70;;
21148;SDS011;10732;51.472;6.466;2022-07-23T03:46:39;13.10;;;10.80;;
21148;SDS011;10732;51.472;6.466;2022-07-23T03:49:04;14.80;;;10.73;;
21148;SDS011;10732;51.472;6.466;2022-07-23T03:51:30;13.38;;;10.85;;
21148;SDS011;10732;51.472;6.466;2022-07-23T03:53:55;16.73;;;10.13;;
21148;SDS011;10732;51.472;6.466;2022-07-23T03:56:21;16.10;;;10.50;;
21148;SDS011;10732;51.472;6.466;2022-07-23T03:58:47;13.30;;;10.40;;
21148;SDS011;10732;51.472;6.466;2022-07-23T04:01:13;13.68;;;10.27;;
21148;SDS011;10732;51.472;6.466;2022-07-23T04:03:38;13.60;;;10.48;;
21148;SDS011;10732;51.472;6.466;2022-07-23T04:06:04;12.25;;;10.93;;
21148;SDS011;10732;51.472;6.466;2022-07-23T04:08:31;12.73;;;10.70;;
21148;SDS011;10732;51.472;6.466;2022-07-23T04:10:57;13.25;;;10.57;;
21148;SDS011;10732;51.472;6.466;2022-07-23T04:13:22;15.73;;;10.82;;
21148;SDS011;10732;51.472;6.466;2022-07-23T04:15:48;16.27;;;10.65;;
21148;SDS011;10732;51.472;6.466;2022-07-23T04:18:14;17.27;;;11.10;;
21148;SDS011;10732;51.472;6.466;2022-07-23T04:20:42;14.30;;;10.65;;
21148;SDS011;10732;51.472;6.466;2022-07-23T04:23:08;14.82;;;10.25;;
21148;SDS011;10732;51.472;6.466;2022-07-23T04:25:34;12.25;;;10.20;;
21148;SDS011;10732;51.472;6.466;2022-07-23T04:28:00;13.85;;;10.07;;
21148;SDS011;10732;51.472;6.466;2022-07-23T04:30:26;17.27;;;10.13;;
21148;SDS011;10732;51.472;6.466;2022-07-23T04:32:51;11.52;;;9.77;;
21148;SDS011;10732;51.472;6.466;2022-07-23T04:35:17;12.80;;;9.38;;
21148;SDS011;10732;51.472;6.466;2022-07-23T04:37:43;13.15;;;9.68;;
21148;SDS011;10732;51.472;6.466;2022-07-23T04:40:08;10.57;;;9.10;;
21148;SDS011;10732;51.472;6.466;2022-07-23T04:42:34;13.13;;;9.55;;
21148;SDS011;10732;51.472;6.466;2022-07-23T04:45:00;11.88;;;9.02;;
21148;SDS011;10732;51.472;6.466;2022-07-23T04:47:25;8.98;;;7.97;;
21148;SDS011;10732;51.472;6.466;2022-07-23T04:49:51;11.70;;;9.07;;
21148;SDS011;10732;51.472;6.466;2022-07-23T04:52:17;10.00;;;8.68;;
21148;SDS011;10732;51.472;6.466;2022-07-23T04:54:42;11.80;;;8.13;;
21148;SDS011;10732;51.472;6.466;2022-07-23T04:57:08;12.85;;;8.48;;
21148;SDS011;10732;51.472;6.466;2022-07-23T04:59:33;11.27;;;7.72;;
21148;SDS011;10732;51.472;6.466;2022-07-23T05:01:59;11.82;;;7.18;;
21148;SDS011;10732;51.472;6.466;2022-07-23T05:04:24;8.50;;;6.28;;
21148;SDS011;10732;51.472;6.466;2022-07-23T05:06:50;11.60;;;6.18;;
21148;SDS011;10732;51.472;6.466;2022-07-23T05:09:15;7.15;;;5.57;;
21148;SDS011;10732;51.472;6.466;2022-07-23T05:11:41;7.32;;;5.38;;
21148;SDS011;10732;51.472;6.466;2022-07-23T05:14:06;10.52;;;5.07;;
21148;SDS011;10732;51.472;6.466;2022-07-23T05:16:32;6.07;;;4.75;;
21148;SDS011;10732;51.472;6.466;2022-07-23T05:18:58;7.28;;;5.25;;
21148;SDS011;10732;51.472;6.466;2022-07-23T05:21:23;6.07;;;4.93;;
21148;SDS011;10732;51.472;6.466;2022-07-23T05:23:49;5.95;;;4.63;;
21148;SDS011;10732;51.472;6.466;2022-07-23T05:26:14;5.32;;;4.65;;
21148;SDS011;10732;51.472;6.466;2022-07-23T05:28:40;5.70;;;4.40;;
21148;SDS011;10732;51.472;6.466;2022-07-23T05:31:05;8.20;;;4.75;;
21148;SDS011;10732;51.472;6.466;2022-07-23T05:33:31;5.60;;;4.47;;
21148;SDS011;10732;51.472;6.466;2022-07-23T05:36:00;4.75;;;4.35;;
21148;SDS011;10732;51.472;6.466;2022-07-23T05:38:27;6.70;;;4.78;;
21148;SDS011;10732;51.472;6.466;2022-07-23T05:40:53;5.43;;;4.32;;
21148;SDS011;10732;51.472;6.466;2022-07-23T05:43:19;7.28;;;4.90;;
21148;SDS011;10732;51.472;6.466;2022-07-23T05:45:45;5.95;;;4.60;;
21148;SDS011;10732;51.472;6.466;2022-07-23T05:48:10;6.93;;;4.88;;
21148;SDS011;10732;51.472;6.466;2022-07-23T05:50:36;7.25;;;4.80;;
21148;SDS011;10732;51.472;6.466;2022-07-23T05:53:02;8.63;;;4.72;;
21148;SDS011;10732;51.472;6.466;2022-07-23T05:55:27;7.72;;;5.07;;
21148;SDS011;10732;51.472;6.466;2022-07-23T05:57:54;7.10;;;5.05;;
21148;SDS011;10732;51.472;6.466;2022-07-23T06:00:24;6.93;;;4.88;;
21148;SDS011;10732;51.472;6.466;2022-07-23T06:02:50;6.85;;;4.80;;
21148;SDS011;10732;51.472;6.466;2022-07-23T06:05:16;7.47;;;4.68;;
21148;SDS011;10732;51.472;6.466;2022-07-23T06:07:41;5.30;;;4.18;;
21148;SDS011;10732;51.472;6.466;2022-07-23T06:10:07;7.68;;;4.63;;
21148;SDS011;10732;51.472;6.466;2022-07-23T06:12:33;7.60;;;4.90;;
21148;SDS011;10732;51.472;6.466;2022-07-23T06:14:59;7.60;;;5.00;;
21148;SDS011;10732;51.472;6.466;2022-07-23T06:17:25;6.70;;;4.65;;
21148;SDS011;10732;51.472;6.466;2022-07-23T06:19:51;7.00;;;4.38;;
21148;SDS011;10732;51.472;6.466;2022-07-23T06:22:17;9.18;;;5.05;;
21148;SDS011;10732;51.472;6.466;2022-07-23T06:24:43;5.63;;;4.28;;
21148;SDS011;10732;51.472;6.466;2022-07-23T06:27:09;9.52;;;4.65;;
21148;SDS011;10732;51.472;6.466;2022-07-23T06:29:35;5.95;;;4.60;;
21148;SDS011;10732;51.472;6.466;2022-07-23T06:32:01;8.90;;;4.22;;
21148;SDS011;10732;51.472;6.466;2022-07-23T06:34:26;9.55;;;4.57;;
21148;SDS011;10732;51.472;6.466;2022-07-23T06:36:52;6.97;;;4.25;;
21148;SDS011;10732;51.472;6.466;2022-07-23T06:39:17;5.32;;;4.10;;
21148;SDS011;10732;51.472;6.466;2022-07-23T06:41:43;5.95;;;4.50;;
21148;SDS011;10732;51.472;6.466;2022-07-23T06:44:08;5.93;;;4.43;;
21148;SDS011;10732;51.472;6.466;2022-07-23T06:46:34;6.00;;;3.80;;
21148;SDS011;10732;51.472;6.466;2022-07-23T06:49:00;4.47;;;3.60;;
21148;SDS011;10732;51.472;6.466;2022-07-23T06:51:25;5.50;;;3.92;;
21148;SDS011;10732;51.472;6.466;2022-07-23T06:53:51;5.53;;;3.72;;
21148;SDS011;10732;51.472;6.466;2022-07-23T06:56:16;4.65;;;3.72;;
21148;SDS011;10732;51.472;6.466;2022-07-23T06:58:42;6.55;;;3.80;;
21148;SDS011;10732;51.472;6.466;2022-07-23T07:01:07;5.50;;;3.15;;
21148;SDS011;10732;51.472;6.466;2022-07-23T07:03:33;6.28;;;3.65;;
21148;SDS011;10732;51.472;6.466;2022-07-23T07:05:59;5.03;;;3.80;;
21148;SDS011;10732;51.472;6.466;2022-07-23T07:08:24;7.10;;;3.83;;
21148;SDS011;10732;51.472;6.466;2022-07-23T07:10:50;4.85;;;3.63;;
21148;SDS011;10732;51.472;6.466;2022-07-23T07:13:15;4.95;;;3.65;;
21148;SDS011;10732;51.472;6.466;2022-07-23T07:15:41;5.07;;;3.47;;
21148;SDS011;10732;51.472;6.466;2022-07-23T07:18:07;5.25;;;3.30;;
21148;SDS011;10732;51.472;6.466;2022-07-23T07:20:33;6.22;;;3.75;;
21148;SDS011;10732;51.472;6.466;2022-07-23T07:22:58;5.47;;;3.80;;
21148;SDS011;10732;51.472;6.466;2022-07-23T07:25:24;4.75;;;3.72;;
21148;SDS011;10732;51.472;6.466;2022-07-23T07:27:50;4.82;;;3.60;;
21148;SDS011;10732;51.472;6.466;2022-07-23T07:30:15;7.47;;;3.00;;
21148;SDS011;10732;51.472;6.466;2022-07-23T07:32:41;6.18;;;3.90;;
21148;SDS011;10732;51.472;6.466;2022-07-23T07:35:07;5.75;;;2.95;;
21148;SDS011;10732;51.472;6.466;2022-07-23T07:37:33;4.50;;;3.17;;
21148;SDS011;10732;51.472;6.466;2022-07-23T07:39:59;4.28;;;2.60;;
21148;SDS011;10732;51.472;6.466;2022-07-23T07:42:24;5.35;;;3.10;;
21148;SDS011;10732;51.472;6.466;2022-07-23T07:44:50;6.70;;;2.55;;
21148;SDS011;10732;51.472;6.466;2022-07-23T07:47:16;4.18;;;2.90;;
21148;SDS011;10732;51.472;6.466;2022-07-23T07:49:42;6.03;;;3.00;;
21148;SDS011;10732;51.472;6.466;2022-07-23T07:52:08;3.63;;;3.08;;
21148;SDS011;10732;51.472;6.466;2022-07-23T07:54:34;5.32;;;2.60;;
21148;SDS011;10732;51.472;6.466;2022-07-23T07:56:59;4.70;;;2.72;;
21148;SDS011;10732;51.472;6.466;2022-07-23T07:59:25;5.95;;;2.80;;
21148;SDS011;10732;51.472;6.466;2022-07-23T08:01:50;5.47;;;2.70;;
21148;SDS011;10732;51.472;6.466;2022-07-23T08:04:16;5.00;;;2.80;;
21148;SDS011;10732;51.472;6.466;2022-07-23T08:06:42;3.25;;;2.20;;
21148;SDS011;10732;51.472;6.466;2022-07-23T08:09:07;4.72;;;2.63;;
21148;SDS011;10732;51.472;6.466;2022-07-23T08:11:33;4.30;;;2.40;;
21148;SDS011;10732;51.472;6.466;2022-07-23T08:13:59;5.18;;;2.97;;
21148;SDS011;10732;51.472;6.466;2022-07-23T08:16:24;4.03;;;2.45;;
21148;SDS011;10732;51.472;6.466;2022-07-23T08:18:50;6.25;;;2.40;;
21148;SDS011;10732;51.472;6.466;2022-07-23T08:21:15;3.60;;;2.33;;
21148;SDS011;10732;51.472;6.466;2022-07-23T08:23:41;5.65;;;2.40;;
21148;SDS011;10732;51.472;6.466;2022-07-23T08:26:07;3.63;;;2.10;;
21148;SDS011;10732;51.472;6.466;2022-07-23T08:28:32;3.40;;;2.22;;
21148;SDS011;10732;51.472;6.466;2022-07-23T08:30:58;5.90;;;2.50;;
21148;SDS011;10732;51.472;6.466;2022-07-23T08:33:24;3.03;;;2.08;;
21148;SDS011;10732;51.472;6.466;2022-07-23T08:35:50;5.57;;;2.60;;
21148;SDS011;10732;51.472;6.466;2022-07-23T08:38:18;4.38;;;2.08;;
21148;SDS011;10732;51.472;6.466;2022-07-23T08:40:46;6.43;;;2.05;;
21148;SDS011;10732;51.472;6.466;2022-07-23T08:43:14;6.07;;;2.30;;
21148;SDS011;10732;51.472;6.466;2022-07-23T08:45:43;6.72;;;2.67;;
21148;SDS011;10732;51.472;6.466;2022-07-23T08:48:20;5.90;;;2.72;;
21148;SDS011;10732;51.472;6.466;2022-07-23T08:50:48;3.88;;;2.10;;
21148;SDS011;10732;51.472;6.466;2022-07-23T08:53:15;3.55;;;2.58;;
21148;SDS011;10732;51.472;6.466;2022-07-23T08:55:46;2.83;;;2.30;;
21148;SDS011;10732;51.472;6.466;2022-07-23T08:58:14;3.47;;;2.45;;
21148;SDS011;10732;51.472;6.466;2022-07-23T09:00:40;4.68;;;2.13;;
21148;SDS011;10732;51.472;6.466;2022-07-23T09:03:06;3.05;;;1.90;;
21148;SDS011;10732;51.472;6.466;2022-07-23T09:05:31;4.65;;;2.30;;
21148;SDS011;10732;51.472;6.466;2022-07-23T09:08:07;3.15;;;1.90;;
21148;SDS011;10732;51.472;6.466;2022-07-23T09:10:56;6.57;;;2.33;;
21148;SDS011;10732;51.472;6.466;2022-07-23T09:18:57;4.57;;;2.10;;
21148;SDS011;10732;51.472;6.466;2022-07-23T09:21:28;3.45;;;2.53;;
21148;SDS011;10732;51.472;6.466;2022-07-23T09:23:59;5.57;;;2.50;;
21148;SDS011;10732;51.472;6.466;2022-07-23T09:29:08;3.45;;;1.98;;
21148;SDS011;10732;51.472;6.466;2022-07-23T09:31:50;3.45;;;2.30;;
21148;SDS011;10732;51.472;6.466;2022-07-23T09:34:26;3.72;;;2.40;;
21148;SDS011;10732;51.472;6.466;2022-07-23T09:36:54;2.70;;;2.10;;
21148;SDS011;10732;51.472;6.466;2022-07-23T09:39:26;2.75;;;2.10;;
21148;SDS011;10732;51.472;6.466;2022-07-23T09:41:56;4.15;;;2.00;;
21148;SDS011;10732;51.472;6.466;2022-07-23T09:44:22;3.33;;;1.80;;
21148;SDS011;10732;51.472;6.466;2022-07-23T09:46:48;2.55;;;1.70;;
21148;SDS011;10732;51.472;6.466;2022-07-23T09:49:16;3.50;;;1.90;;
21148;SDS011;10732;51.472;6.466;2022-07-23T09:51:46;3.63;;;1.90;;
21148;SDS011;10732;51.472;6.466;2022-07-23T09:56:51;3.75;;;1.98;;
21148;SDS011;10732;51.472;6.466;2022-07-23T09:59:18;2.55;;;1.55;;
21148;SDS011;10732;51.472;6.466;2022-07-23T10:01:49;2.67;;;1.80;;
21148;SDS011;10732;51.472;6.466;2022-07-23T10:04:16;2.42;;;2.00;;
21148;SDS011;10732;51.472;6.466;2022-07-23T10:06:43;4.00;;;2.00;;
21148;SDS011;10732;51.472;6.466;2022-07-23T10:09:11;2.50;;;1.80;;
21148;SDS011;10732;51.472;6.466;2022-07-23T10:11:37;2.90;;;1.80;;
21148;SDS011;10732;51.472;6.466;2022-07-23T10:14:03;2.17;;;1.60;;
21148;SDS011;10732;51.472;6.466;2022-07-23T10:16:30;4.80;;;2.05;;
21148;SDS011;10732;51.472;6.466;2022-07-23T10:18:56;4.80;;;1.70;;
21148;SDS011;10732;51.472;6.466;2022-07-23T10:21:40;2.83;;;1.60;;
21148;SDS011;10732;51.472;6.466;2022-07-23T10:27:07;2.58;;;1.50;;
21148;SDS011;10732;51.472;6.466;2022-07-23T10:38:19;3.58;;;1.85;;
21148;SDS011;10732;51.472;6.466;2022-07-23T10:43:22;3.75;;;1.92;;
21148;SDS011;10732;51.472;6.466;2022-07-23T10:45:48;4.80;;;1.77;;
21148;SDS011;10732;51.472;6.466;2022-07-23T10:48:15;3.65;;;1.60;;
21148;SDS011;10732;51.472;6.466;2022-07-23T10:59:16;3.60;;;1.80;;
21148;SDS011;10732;51.472;6.466;2022-07-23T11:01:42;1.95;;;1.50;;
21148;SDS011;10732;51.472;6.466;2022-07-23T11:04:07;3.03;;;1.70;;
21148;SDS011;10732;51.472;6.466;2022-07-23T11:12:31;3.10;;;2.20;;
